Pelham, SC

10:01 PM EST on January 17, 2018 (GMT -0500)
Shelburne Farms | | Change Station
Active Advisory: Winter Weather Advisory

Elev 833 ft 34.89 °N, 82.25 °W | Updated 6 seconds ago

Clear
Clear
19.0 °F
Feels Like 19 °F
N
0.0
Wind Variable Wind from WSW
Gusts 0.0 mph

Today
High -- | Low -- °F
--% Chance of Precip.
Yesterday
High -- | Low -- °F
Precip. -- in
Pressure 30.36 in
Visibility 10.0 miles
Clouds Clear
Windchill 19 °F
Dew Point 9 °F
Humidity 64%
Rainfall 0.02 in
Snow Depth Not available.
7:35 AM 5:42 PM
New Moon, 1% visible
METAR KGSP 180253Z 30007KT 10SM CLR M07/M14 A3033 RMK AO2 SLP279 T10721139 51012
Pressure 30.36 in
Visibility 10.0 miles
Clouds Clear
Windchill 19 °F
Dew Point 9 °F
Humidity 64%
Rainfall 0.02 in
Snow Depth Not available.
7:35 AM 5:42 PM
New Moon, 1% visible
METAR KGSP 180253Z 30007KT 10SM CLR M07/M14 A3033 RMK AO2 SLP279 T10721139 51012

Get Your Daily Forecast Email!

Thanks for signing up!

Be on the lookout for a verification email in your inbox.

You'll start receiving severe weather alerts in your inbox..

×

10-Day Weather Forecast

Almanac

Astronomy

Jan. 17, 2018 Rise Set
Actual Time
Civil Twilight
Nautical Twilight
Astronomical Twilight
Moon
Length of Visible Light
Length of Day
Tomorrow will be .
, % of the Moon is Illuminated

Today's Extremes

State Highs State Lows

Community

WunderPhotos

Category 6

Welcome to Category 6. This is the collective home for Weather Underground's featured writeups by Dr. Jeff Masters (right), Bob Henson (left), Chris Burt, and other regular contributors.

Nearby

Air Quality

  Air Quality AQ Index Pollutant
Not available.

Snow Depth

Station Depth Elevation

Earthquake Activity

City Distance Mag. Time & Date
Minimum magnitude displayed is 2.5.

Coastal Water Temperatures

Place Temperature

Stations

Nearby Weather Stations

Station Location Temp. Windchill Dew Point Humidity Wind Precip. Elev Updated Type
                   

Watches & Warnings

Winter Weather Advisory
Issued: 9:37 PM EST Jan. 17, 2018 – National Weather Service

... Winter Weather Advisory remains in effect until 11 am EST
Thursday...

* what... black ice will create slippery Road conditions tonight
into tomorrow morning.

* Where... much of upstate South Carolina, northeast Georgia and
the foothills and Piedmont of North Carolina.

* When... until 11 am EST Thursday.

* Additional details... any melt water will quickly refreeze,
resulting in hazardous driving conditions through tomorrow
morning.

Precautionary/preparedness actions...

A Winter Weather Advisory for black ice means that refreezing of
roads will occur... resulting in the development of widespread
black ice. Be prepared for very slippery roadways. Some roads that
appear clear may be covered by a thin layer of ice.

Stay tuned to NOAA Weather Radio or your favorite source of
weather information for the latest updates. Additional details can
be found at www.Weather.Gov/gsp.